sensor_id;sensor_type;location;lat;lon;timestamp;P1;durP1;ratioP1;P2;durP2;ratioP2
13897;SDS011;7019;50.766;4.474;2023-07-09T00:02:13;6.17;;;4.70;;
13897;SDS011;7019;50.766;4.474;2023-07-09T00:04:40;5.30;;;4.80;;
13897;SDS011;7019;50.766;4.474;2023-07-09T00:07:11;7.60;;;5.10;;
13897;SDS011;7019;50.766;4.474;2023-07-09T00:09:45;6.33;;;5.10;;
13897;SDS011;7019;50.766;4.474;2023-07-09T00:12:17;7.57;;;5.37;;
13897;SDS011;7019;50.766;4.474;2023-07-09T00:14:44;8.03;;;4.80;;
13897;SDS011;7019;50.766;4.474;2023-07-09T00:17:15;5.33;;;4.30;;
13897;SDS011;7019;50.766;4.474;2023-07-09T00:19:45;5.83;;;4.67;;
13897;SDS011;7019;50.766;4.474;2023-07-09T00:22:14;5.10;;;4.53;;
13897;SDS011;7019;50.766;4.474;2023-07-09T00:24:42;10.20;;;5.80;;
13897;SDS011;7019;50.766;4.474;2023-07-09T00:27:10;6.77;;;5.13;;
13897;SDS011;7019;50.766;4.474;2023-07-09T00:29:41;10.47;;;5.80;;
13897;SDS011;7019;50.766;4.474;2023-07-09T00:32:10;7.43;;;5.23;;
13897;SDS011;7019;50.766;4.474;2023-07-09T00:34:41;7.63;;;5.03;;
13897;SDS011;7019;50.766;4.474;2023-07-09T00:37:13;7.53;;;5.83;;
13897;SDS011;7019;50.766;4.474;2023-07-09T00:39:42;5.73;;;4.30;;
13897;SDS011;7019;50.766;4.474;2023-07-09T00:42:11;6.63;;;4.80;;
13897;SDS011;7019;50.766;4.474;2023-07-09T00:44:44;5.77;;;5.10;;
13897;SDS011;7019;50.766;4.474;2023-07-09T00:47:17;7.43;;;5.27;;
13897;SDS011;7019;50.766;4.474;2023-07-09T00:49:49;7.30;;;4.97;;
13897;SDS011;7019;50.766;4.474;2023-07-09T00:52:33;6.50;;;5.13;;
13897;SDS011;7019;50.766;4.474;2023-07-09T00:55:06;5.90;;;5.30;;
13897;SDS011;7019;50.766;4.474;2023-07-09T00:57:39;7.87;;;5.43;;
13897;SDS011;7019;50.766;4.474;2023-07-09T01:00:10;9.03;;;5.50;;
13897;SDS011;7019;50.766;4.474;2023-07-09T01:02:41;9.43;;;5.73;;
13897;SDS011;7019;50.766;4.474;2023-07-09T01:05:11;8.50;;;5.40;;
13897;SDS011;7019;50.766;4.474;2023-07-09T01:07:41;9.70;;;6.00;;
13897;SDS011;7019;50.766;4.474;2023-07-09T01:10:11;5.57;;;4.97;;
13897;SDS011;7019;50.766;4.474;2023-07-09T01:12:39;6.87;;;5.20;;
13897;SDS011;7019;50.766;4.474;2023-07-09T01:15:07;7.93;;;5.43;;
13897;SDS011;7019;50.766;4.474;2023-07-09T01:17:37;6.60;;;5.13;;
13897;SDS011;7019;50.766;4.474;2023-07-09T01:20:06;8.90;;;5.50;;
13897;SDS011;7019;50.766;4.474;2023-07-09T01:22:36;8.50;;;5.90;;
13897;SDS011;7019;50.766;4.474;2023-07-09T01:25:04;8.73;;;5.83;;
13897;SDS011;7019;50.766;4.474;2023-07-09T01:27:34;8.17;;;4.90;;
13897;SDS011;7019;50.766;4.474;2023-07-09T01:30:04;6.07;;;5.43;;
13897;SDS011;7019;50.766;4.474;2023-07-09T01:32:33;9.57;;;5.97;;
13897;SDS011;7019;50.766;4.474;2023-07-09T01:35:01;6.37;;;4.77;;
13897;SDS011;7019;50.766;4.474;2023-07-09T01:37:32;8.43;;;5.30;;
13897;SDS011;7019;50.766;4.474;2023-07-09T01:40:02;5.57;;;4.70;;
13897;SDS011;7019;50.766;4.474;2023-07-09T01:42:31;6.07;;;5.03;;
13897;SDS011;7019;50.766;4.474;2023-07-09T01:44:59;5.37;;;4.73;;
13897;SDS011;7019;50.766;4.474;2023-07-09T01:47:29;5.63;;;4.80;;
13897;SDS011;7019;50.766;4.474;2023-07-09T01:49:56;4.70;;;4.20;;
13897;SDS011;7019;50.766;4.474;2023-07-09T01:52:23;8.03;;;5.57;;
13897;SDS011;7019;50.766;4.474;2023-07-09T01:54:54;10.00;;;4.97;;
13897;SDS011;7019;50.766;4.474;2023-07-09T01:57:23;6.83;;;4.63;;
13897;SDS011;7019;50.766;4.474;2023-07-09T01:59:58;7.70;;;5.33;;
13897;SDS011;7019;50.766;4.474;2023-07-09T02:02:26;7.20;;;5.27;;
13897;SDS011;7019;50.766;4.474;2023-07-09T02:04:55;5.90;;;5.13;;
13897;SDS011;7019;50.766;4.474;2023-07-09T02:07:23;7.33;;;5.33;;
13897;SDS011;7019;50.766;4.474;2023-07-09T02:09:50;7.93;;;5.63;;
13897;SDS011;7019;50.766;4.474;2023-07-09T02:12:18;7.00;;;5.33;;
13897;SDS011;7019;50.766;4.474;2023-07-09T02:14:46;6.00;;;5.40;;
13897;SDS011;7019;50.766;4.474;2023-07-09T02:17:14;6.13;;;5.20;;
13897;SDS011;7019;50.766;4.474;2023-07-09T02:19:41;6.03;;;5.43;;
13897;SDS011;7019;50.766;4.474;2023-07-09T02:22:08;7.20;;;5.77;;
13897;SDS011;7019;50.766;4.474;2023-07-09T02:24:36;9.73;;;5.50;;
13897;SDS011;7019;50.766;4.474;2023-07-09T02:27:04;10.10;;;5.53;;
13897;SDS011;7019;50.766;4.474;2023-07-09T02:29:33;10.23;;;5.57;;
13897;SDS011;7019;50.766;4.474;2023-07-09T02:32:02;7.57;;;5.50;;
13897;SDS011;7019;50.766;4.474;2023-07-09T02:34:29;7.80;;;5.50;;
13897;SDS011;7019;50.766;4.474;2023-07-09T02:36:57;6.13;;;5.37;;
13897;SDS011;7019;50.766;4.474;2023-07-09T02:39:25;7.27;;;5.50;;
13897;SDS011;7019;50.766;4.474;2023-07-09T02:41:52;9.23;;;6.00;;
13897;SDS011;7019;50.766;4.474;2023-07-09T02:44:19;6.73;;;6.00;;
13897;SDS011;7019;50.766;4.474;2023-07-09T02:46:46;7.47;;;6.00;;
13897;SDS011;7019;50.766;4.474;2023-07-09T02:49:15;6.73;;;5.00;;
13897;SDS011;7019;50.766;4.474;2023-07-09T02:51:42;7.67;;;5.80;;
13897;SDS011;7019;50.766;4.474;2023-07-09T02:54:10;9.13;;;5.70;;
13897;SDS011;7019;50.766;4.474;2023-07-09T02:56:37;7.53;;;5.33;;
13897;SDS011;7019;50.766;4.474;2023-07-09T02:59:04;6.30;;;5.70;;
13897;SDS011;7019;50.766;4.474;2023-07-09T03:01:31;7.73;;;5.70;;
13897;SDS011;7019;50.766;4.474;2023-07-09T03:03:59;8.13;;;5.60;;
13897;SDS011;7019;50.766;4.474;2023-07-09T03:06:29;7.03;;;4.93;;
13897;SDS011;7019;50.766;4.474;2023-07-09T03:08:59;6.43;;;4.80;;
13897;SDS011;7019;50.766;4.474;2023-07-09T03:11:27;8.23;;;5.23;;
13897;SDS011;7019;50.766;4.474;2023-07-09T03:13:56;6.57;;;4.93;;
13897;SDS011;7019;50.766;4.474;2023-07-09T03:16:23;6.47;;;5.20;;
13897;SDS011;7019;50.766;4.474;2023-07-09T03:18:52;9.47;;;5.60;;
13897;SDS011;7019;50.766;4.474;2023-07-09T03:21:20;6.80;;;5.47;;
13897;SDS011;7019;50.766;4.474;2023-07-09T03:23:48;7.23;;;6.23;;
13897;SDS011;7019;50.766;4.474;2023-07-09T03:26:16;8.70;;;6.30;;
13897;SDS011;7019;50.766;4.474;2023-07-09T03:28:43;9.97;;;6.30;;
13897;SDS011;7019;50.766;4.474;2023-07-09T03:31:10;5.93;;;5.33;;
13897;SDS011;7019;50.766;4.474;2023-07-09T03:33:38;7.07;;;5.93;;
13897;SDS011;7019;50.766;4.474;2023-07-09T03:36:05;7.97;;;5.83;;
13897;SDS011;7019;50.766;4.474;2023-07-09T03:38:32;7.50;;;5.73;;
13897;SDS011;7019;50.766;4.474;2023-07-09T03:41:01;7.43;;;6.00;;
13897;SDS011;7019;50.766;4.474;2023-07-09T03:43:28;8.37;;;5.73;;
13897;SDS011;7019;50.766;4.474;2023-07-09T03:45:55;12.30;;;6.07;;
13897;SDS011;7019;50.766;4.474;2023-07-09T03:48:22;7.03;;;5.63;;
13897;SDS011;7019;50.766;4.474;2023-07-09T03:50:50;7.80;;;5.47;;
13897;SDS011;7019;50.766;4.474;2023-07-09T03:53:17;8.30;;;6.37;;
13897;SDS011;7019;50.766;4.474;2023-07-09T03:55:45;8.90;;;5.90;;
13897;SDS011;7019;50.766;4.474;2023-07-09T03:58:13;8.33;;;5.63;;
13897;SDS011;7019;50.766;4.474;2023-07-09T04:00:41;6.40;;;5.70;;
13897;SDS011;7019;50.766;4.474;2023-07-09T04:03:08;11.07;;;6.40;;
13897;SDS011;7019;50.766;4.474;2023-07-09T04:05:35;7.90;;;6.50;;
13897;SDS011;7019;50.766;4.474;2023-07-09T04:08:03;6.60;;;5.03;;
13897;SDS011;7019;50.766;4.474;2023-07-09T04:10:31;6.17;;;4.87;;
13897;SDS011;7019;50.766;4.474;2023-07-09T04:12:58;6.63;;;4.93;;
13897;SDS011;7019;50.766;4.474;2023-07-09T04:15:26;8.10;;;4.93;;
13897;SDS011;7019;50.766;4.474;2023-07-09T04:17:54;8.17;;;5.10;;
13897;SDS011;7019;50.766;4.474;2023-07-09T04:20:21;6.23;;;5.00;;
13897;SDS011;7019;50.766;4.474;2023-07-09T04:22:48;10.47;;;5.07;;
13897;SDS011;7019;50.766;4.474;2023-07-09T04:25:15;5.40;;;4.83;;
13897;SDS011;7019;50.766;4.474;2023-07-09T04:27:42;6.47;;;5.10;;
13897;SDS011;7019;50.766;4.474;2023-07-09T04:30:11;6.00;;;5.00;;
13897;SDS011;7019;50.766;4.474;2023-07-09T04:32:41;5.17;;;4.67;;
13897;SDS011;7019;50.766;4.474;2023-07-09T04:35:09;10.00;;;5.57;;
13897;SDS011;7019;50.766;4.474;2023-07-09T04:37:37;10.07;;;6.07;;
13897;SDS011;7019;50.766;4.474;2023-07-09T04:40:05;6.73;;;5.33;;
13897;SDS011;7019;50.766;4.474;2023-07-09T04:42:36;6.43;;;5.17;;
13897;SDS011;7019;50.766;4.474;2023-07-09T04:45:05;5.50;;;4.83;;
13897;SDS011;7019;50.766;4.474;2023-07-09T04:47:34;5.80;;;4.60;;
13897;SDS011;7019;50.766;4.474;2023-07-09T04:50:03;7.90;;;5.43;;
13897;SDS011;7019;50.766;4.474;2023-07-09T04:52:31;6.70;;;5.10;;
13897;SDS011;7019;50.766;4.474;2023-07-09T04:54:58;6.10;;;5.30;;
13897;SDS011;7019;50.766;4.474;2023-07-09T04:57:26;5.80;;;4.83;;
13897;SDS011;7019;50.766;4.474;2023-07-09T04:59:53;9.73;;;5.00;;
13897;SDS011;7019;50.766;4.474;2023-07-09T05:02:21;9.93;;;4.80;;
13897;SDS011;7019;50.766;4.474;2023-07-09T05:04:48;5.80;;;5.10;;
13897;SDS011;7019;50.766;4.474;2023-07-09T05:07:17;5.50;;;5.00;;
13897;SDS011;7019;50.766;4.474;2023-07-09T05:09:44;6.37;;;4.43;;
13897;SDS011;7019;50.766;4.474;2023-07-09T05:12:11;5.43;;;4.83;;
13897;SDS011;7019;50.766;4.474;2023-07-09T05:14:38;7.23;;;4.83;;
13897;SDS011;7019;50.766;4.474;2023-07-09T05:17:06;8.30;;;5.03;;
13897;SDS011;7019;50.766;4.474;2023-07-09T05:19:33;7.10;;;5.13;;
13897;SDS011;7019;50.766;4.474;2023-07-09T05:22:01;5.57;;;4.77;;
13897;SDS011;7019;50.766;4.474;2023-07-09T05:24:30;6.10;;;4.60;;
13897;SDS011;7019;50.766;4.474;2023-07-09T05:26:57;8.27;;;4.87;;
13897;SDS011;7019;50.766;4.474;2023-07-09T05:29:24;5.80;;;4.63;;
13897;SDS011;7019;50.766;4.474;2023-07-09T05:31:51;6.00;;;4.93;;
13897;SDS011;7019;50.766;4.474;2023-07-09T05:34:19;6.20;;;4.40;;
13897;SDS011;7019;50.766;4.474;2023-07-09T05:36:46;5.37;;;4.57;;
13897;SDS011;7019;50.766;4.474;2023-07-09T05:39:13;7.10;;;5.20;;
13897;SDS011;7019;50.766;4.474;2023-07-09T05:41:42;6.70;;;4.40;;
13897;SDS011;7019;50.766;4.474;2023-07-09T05:44:09;5.73;;;4.20;;
13897;SDS011;7019;50.766;4.474;2023-07-09T05:46:36;6.63;;;4.40;;
13897;SDS011;7019;50.766;4.474;2023-07-09T05:49:04;5.83;;;4.87;;
13897;SDS011;7019;50.766;4.474;2023-07-09T05:51:35;6.23;;;4.20;;
13897;SDS011;7019;50.766;4.474;2023-07-09T05:54:02;6.37;;;4.70;;
13897;SDS011;7019;50.766;4.474;2023-07-09T05:56:29;4.97;;;4.10;;
13897;SDS011;7019;50.766;4.474;2023-07-09T05:58:58;7.50;;;4.13;;
13897;SDS011;7019;50.766;4.474;2023-07-09T06:01:26;7.88;;;3.58;;
13897;SDS011;7019;50.766;4.474;2023-07-09T06:03:53;5.63;;;3.78;;
13897;SDS011;7019;50.766;4.474;2023-07-09T06:06:21;4.93;;;4.30;;
13897;SDS011;7019;50.766;4.474;2023-07-09T06:08:48;4.45;;;3.92;;
13897;SDS011;7019;50.766;4.474;2023-07-09T06:11:16;7.18;;;4.05;;
13897;SDS011;7019;50.766;4.474;2023-07-09T06:13:43;4.50;;;4.10;;
13897;SDS011;7019;50.766;4.474;2023-07-09T06:16:13;4.65;;;4.07;;
13897;SDS011;7019;50.766;4.474;2023-07-09T06:18:40;4.80;;;3.75;;
13897;SDS011;7019;50.766;4.474;2023-07-09T06:21:07;4.45;;;3.90;;
13897;SDS011;7019;50.766;4.474;2023-07-09T06:23:36;5.22;;;3.83;;
13897;SDS011;7019;50.766;4.474;2023-07-09T06:26:03;4.70;;;3.70;;
13897;SDS011;7019;50.766;4.474;2023-07-09T06:28:31;3.75;;;3.35;;
13897;SDS011;7019;50.766;4.474;2023-07-09T06:30:58;5.38;;;3.85;;
13897;SDS011;7019;50.766;4.474;2023-07-09T06:33:27;4.53;;;3.42;;
13897;SDS011;7019;50.766;4.474;2023-07-09T06:35:54;6.75;;;3.88;;
13897;SDS011;7019;50.766;4.474;2023-07-09T06:38:27;4.65;;;3.50;;
13897;SDS011;7019;50.766;4.474;2023-07-09T06:40:56;4.45;;;3.00;;
13897;SDS011;7019;50.766;4.474;2023-07-09T06:43:23;4.15;;;3.20;;
13897;SDS011;7019;50.766;4.474;2023-07-09T06:45:51;4.43;;;3.53;;
13897;SDS011;7019;50.766;4.474;2023-07-09T06:48:20;7.07;;;3.40;;
13897;SDS011;7019;50.766;4.474;2023-07-09T06:50:49;7.03;;;3.30;;
13897;SDS011;7019;50.766;4.474;2023-07-09T06:53:16;4.07;;;3.20;;
13897;SDS011;7019;50.766;4.474;2023-07-09T06:55:43;5.72;;;3.70;;
13897;SDS011;7019;50.766;4.474;2023-07-09T06:58:10;7.93;;;3.55;;
13897;SDS011;7019;50.766;4.474;2023-07-09T07:00:37;5.28;;;3.40;;
13897;SDS011;7019;50.766;4.474;2023-07-09T07:03:05;6.53;;;3.58;;
13897;SDS011;7019;50.766;4.474;2023-07-09T07:05:32;7.40;;;3.50;;
13897;SDS011;7019;50.766;4.474;2023-07-09T07:08:01;5.03;;;3.80;;
13897;SDS011;7019;50.766;4.474;2023-07-09T07:10:29;9.15;;;3.80;;
13897;SDS011;7019;50.766;4.474;2023-07-09T07:12:56;8.07;;;3.40;;
13897;SDS011;7019;50.766;4.474;2023-07-09T07:15:23;4.97;;;3.55;;
13897;SDS011;7019;50.766;4.474;2023-07-09T07:17:50;4.82;;;3.60;;
13897;SDS011;7019;50.766;4.474;2023-07-09T07:20:17;6.88;;;3.70;;
13897;SDS011;7019;50.766;4.474;2023-07-09T07:22:45;4.10;;;3.35;;
13897;SDS011;7019;50.766;4.474;2023-07-09T07:25:13;5.03;;;3.45;;
13897;SDS011;7019;50.766;4.474;2023-07-09T07:27:41;7.80;;;3.75;;
13897;SDS011;7019;50.766;4.474;2023-07-09T07:30:08;7.22;;;3.60;;
13897;SDS011;7019;50.766;4.474;2023-07-09T07:32:37;6.32;;;3.85;;
13897;SDS011;7019;50.766;4.474;2023-07-09T07:35:05;6.20;;;4.13;;
13897;SDS011;7019;50.766;4.474;2023-07-09T07:37:33;7.18;;;4.03;;
13897;SDS011;7019;50.766;4.474;2023-07-09T07:40:00;6.45;;;4.18;;
13897;SDS011;7019;50.766;4.474;2023-07-09T07:42:31;7.57;;;3.70;;
13897;SDS011;7019;50.766;4.474;2023-07-09T07:44:58;6.43;;;4.20;;
13897;SDS011;7019;50.766;4.474;2023-07-09T07:47:25;9.00;;;4.43;;
13897;SDS011;7019;50.766;4.474;2023-07-09T07:49:53;7.60;;;4.07;;
13897;SDS011;7019;50.766;4.474;2023-07-09T07:52:20;5.85;;;4.40;;
13897;SDS011;7019;50.766;4.474;2023-07-09T07:54:48;6.25;;;4.47;;
13897;SDS011;7019;50.766;4.474;2023-07-09T07:57:15;6.80;;;4.35;;
13897;SDS011;7019;50.766;4.474;2023-07-09T07:59:44;4.65;;;4.18;;
13897;SDS011;7019;50.766;4.474;2023-07-09T08:02:12;7.40;;;4.88;;
13897;SDS011;7019;50.766;4.474;2023-07-09T08:04:40;8.63;;;4.82;;
13897;SDS011;7019;50.766;4.474;2023-07-09T08:07:08;5.22;;;4.72;;
13897;SDS011;7019;50.766;4.474;2023-07-09T08:09:36;6.63;;;4.90;;
13897;SDS011;7019;50.766;4.474;2023-07-09T08:12:04;11.07;;;4.90;;
13897;SDS011;7019;50.766;4.474;2023-07-09T08:14:36;11.23;;;5.10;;
13897;SDS011;7019;50.766;4.474;2023-07-09T08:17:06;7.18;;;5.15;;
13897;SDS011;7019;50.766;4.474;2023-07-09T08:19:43;8.00;;;5.70;;
13897;SDS011;7019;50.766;4.474;2023-07-09T08:22:11;7.97;;;4.78;;
13897;SDS011;7019;50.766;4.474;2023-07-09T08:24:38;7.15;;;5.68;;
13897;SDS011;7019;50.766;4.474;2023-07-09T08:27:05;8.70;;;6.85;;
13897;SDS011;7019;50.766;4.474;2023-07-09T08:29:33;7.65;;;5.93;;
13897;SDS011;7019;50.766;4.474;2023-07-09T08:32:00;8.43;;;6.43;;
13897;SDS011;7019;50.766;4.474;2023-07-09T08:34:29;7.68;;;6.75;;
13897;SDS011;7019;50.766;4.474;2023-07-09T08:36:56;8.82;;;7.68;;
13897;SDS011;7019;50.766;4.474;2023-07-09T08:39:23;8.82;;;6.80;;
13897;SDS011;7019;50.766;4.474;2023-07-09T08:41:52;13.65;;;8.75;;
13897;SDS011;7019;50.766;4.474;2023-07-09T08:44:28;9.10;;;7.30;;
13897;SDS011;7019;50.766;4.474;2023-07-09T08:47:28;11.15;;;7.97;;
13897;SDS011;7019;50.766;4.474;2023-07-09T08:50:02;10.18;;;8.07;;
13897;SDS011;7019;50.766;4.474;2023-07-09T08:52:36;12.57;;;8.48;;
13897;SDS011;7019;50.766;4.474;2023-07-09T08:55:05;10.75;;;8.55;;
13897;SDS011;7019;50.766;4.474;2023-07-09T08:57:36;13.23;;;8.80;;
13897;SDS011;7019;50.766;4.474;2023-07-09T09:00:07;12.07;;;9.05;;
13897;SDS011;7019;50.766;4.474;2023-07-09T09:02:43;10.27;;;9.27;;
13897;SDS011;7019;50.766;4.474;2023-07-09T09:05:17;10.20;;;8.18;;
13897;SDS011;7019;50.766;4.474;2023-07-09T09:07:47;11.52;;;8.73;;
13897;SDS011;7019;50.766;4.474;2023-07-09T09:10:21;9.88;;;7.50;;
13897;SDS011;7019;50.766;4.474;2023-07-09T09:15:39;12.35;;;8.80;;
13897;SDS011;7019;50.766;4.474;2023-07-09T09:18:20;9.38;;;8.23;;
13897;SDS011;7019;50.766;4.474;2023-07-09T09:20:51;10.77;;;7.82;;
13897;SDS011;7019;50.766;4.474;2023-07-09T09:23:22;11.60;;;7.60;;
13897;SDS011;7019;50.766;4.474;2023-07-09T09:25:55;10.07;;;9.07;;
13897;SDS011;7019;50.766;4.474;2023-07-09T09:28:26;11.27;;;8.05;;
13897;SDS011;7019;50.766;4.474;2023-07-09T09:30:53;7.70;;;6.90;;
13897;SDS011;7019;50.766;4.474;2023-07-09T09:33:20;10.65;;;7.82;;
13897;SDS011;7019;50.766;4.474;2023-07-09T09:35:48;11.95;;;8.13;;
13897;SDS011;7019;50.766;4.474;2023-07-09T09:38:21;10.43;;;8.38;;
13897;SDS011;7019;50.766;4.474;2023-07-09T09:40:48;11.07;;;8.13;;
13897;SDS011;7019;50.766;4.474;2023-07-09T09:43:16;8.48;;;6.95;;
13897;SDS011;7019;50.766;4.474;2023-07-09T09:45:47;11.23;;;7.07;;
13897;SDS011;7019;50.766;4.474;2023-07-09T09:48:17;10.70;;;9.20;;
13897;SDS011;7019;50.766;4.474;2023-07-09T09:50:45;9.52;;;7.47;;
13897;SDS011;7019;50.766;4.474;2023-07-09T09:53:18;10.13;;;8.25;;
13897;SDS011;7019;50.766;4.474;2023-07-09T09:55:47;10.98;;;9.98;;
13897;SDS011;7019;50.766;4.474;2023-07-09T09:58:15;14.23;;;10.43;;
13897;SDS011;7019;50.766;4.474;2023-07-09T10:00:47;12.70;;;10.07;;
13897;SDS011;7019;50.766;4.474;2023-07-09T10:03:17;15.23;;;9.88;;
13897;SDS011;7019;50.766;4.474;2023-07-09T10:05:46;13.25;;;9.95;;
13897;SDS011;7019;50.766;4.474;2023-07-09T10:08:20;10.00;;;8.52;;
13897;SDS011;7019;50.766;4.474;2023-07-09T10:10:57;9.25;;;8.23;;
13897;SDS011;7019;50.766;4.474;2023-07-09T10:13:34;13.00;;;9.73;;
13897;SDS011;7019;50.766;4.474;2023-07-09T10:16:06;10.13;;;8.77;;
13897;SDS011;7019;50.766;4.474;2023-07-09T10:18:39;11.35;;;8.93;;
13897;SDS011;7019;50.766;4.474;2023-07-09T10:21:18;9.80;;;8.63;;
13897;SDS011;7019;50.766;4.474;2023-07-09T10:23:59;11.80;;;8.63;;
13897;SDS011;7019;50.766;4.474;2023-07-09T10:26:39;10.13;;;9.00;;
13897;SDS011;7019;50.766;4.474;2023-07-09T10:29:20;16.17;;;9.38;;
13897;SDS011;7019;50.766;4.474;2023-07-09T10:32:16;10.55;;;8.25;;
13897;SDS011;7019;50.766;4.474;2023-07-09T10:34:56;11.80;;;8.23;;
13897;SDS011;7019;50.766;4.474;2023-07-09T10:40:26;10.68;;;8.30;;
13897;SDS011;7019;50.766;4.474;2023-07-09T10:42:58;10.98;;;7.60;;
13897;SDS011;7019;50.766;4.474;2023-07-09T10:45:31;14.70;;;9.48;;
13897;SDS011;7019;50.766;4.474;2023-07-09T10:48:08;14.82;;;9.43;;
13897;SDS011;7019;50.766;4.474;2023-07-09T10:50:42;15.10;;;10.27;;
13897;SDS011;7019;50.766;4.474;2023-07-09T10:53:14;11.73;;;9.63;;
13897;SDS011;7019;50.766;4.474;2023-07-09T10:55:50;11.65;;;9.63;;
13897;SDS011;7019;50.766;4.474;2023-07-09T10:58:22;12.30;;;8.18;;
13897;SDS011;7019;50.766;4.474;2023-07-09T11:01:00;14.80;;;9.98;;
13897;SDS011;7019;50.766;4.474;2023-07-09T11:03:33;14.43;;;8.93;;
13897;SDS011;7019;50.766;4.474;2023-07-09T11:06:05;10.52;;;9.45;;
13897;SDS011;7019;50.766;4.474;2023-07-09T11:08:42;15.13;;;10.20;;
13897;SDS011;7019;50.766;4.474;2023-07-09T11:11:17;15.57;;;11.30;;
13897;SDS011;7019;50.766;4.474;2023-07-09T11:13:52;16.63;;;12.25;;
13897;SDS011;7019;50.766;4.474;2023-07-09T11:16:27;13.77;;;10.90;;
13897;SDS011;7019;50.766;4.474;2023-07-09T11:18:58;15.50;;;12.68;;
13897;SDS011;7019;50.766;4.474;2023-07-09T11:21:28;13.90;;;12.00;;
13897;SDS011;7019;50.766;4.474;2023-07-09T11:23:56;14.93;;;12.05;;
13897;SDS011;7019;50.766;4.474;2023-07-09T11:26:27;15.40;;;11.00;;
13897;SDS011;7019;50.766;4.474;2023-07-09T11:28:56;14.00;;;11.23;;
13897;SDS011;7019;50.766;4.474;2023-07-09T11:31:40;11.93;;;9.70;;
13897;SDS011;7019;50.766;4.474;2023-07-09T11:34:15;15.45;;;11.18;;
13897;SDS011;7019;50.766;4.474;2023-07-09T11:36:48;11.85;;;9.65;;
13897;SDS011;7019;50.766;4.474;2023-07-09T11:39:20;10.60;;;8.60;;
13897;SDS011;7019;50.766;4.474;2023-07-09T11:41:52;11.20;;;8.38;;
13897;SDS011;7019;50.766;4.474;2023-07-09T11:44:20;10.75;;;8.63;;
13897;SDS011;7019;50.766;4.474;2023-07-09T11:46:59;10.45;;;8.60;;
13897;SDS011;7019;50.766;4.474;2023-07-09T11:49:42;10.27;;;8.85;;
13897;SDS011;7019;50.766;4.474;2023-07-09T11:52:14;8.63;;;7.55;;
13897;SDS011;7019;50.766;4.474;2023-07-09T11:54:46;7.93;;;6.95;;
13897;SDS011;7019;50.766;4.474;2023-07-09T11:57:15;8.80;;;6.53;;
13897;SDS011;7019;50.766;4.474;2023-07-09T11:59:42;9.43;;;6.60;;
13897;SDS011;7019;50.766;4.474;2023-07-09T12:02:13;7.57;;;5.77;;
13897;SDS011;7019;50.766;4.474;2023-07-09T12:04:44;7.73;;;5.93;;
13897;SDS011;7019;50.766;4.474;2023-07-09T12:07:13;6.67;;;5.47;;
13897;SDS011;7019;50.766;4.474;2023-07-09T12:09:43;6.87;;;4.80;;
13897;SDS011;7019;50.766;4.474;2023-07-09T12:12:21;10.17;;;5.50;;
13897;SDS011;7019;50.766;4.474;2023-07-09T12:14:50;7.97;;;6.33;;
13897;SDS011;7019;50.766;4.474;2023-07-09T12:17:17;10.80;;;5.87;;
13897;SDS011;7019;50.766;4.474;2023-07-09T12:19:44;14.07;;;6.93;;
13897;SDS011;7019;50.766;4.474;2023-07-09T12:22:15;10.83;;;6.87;;
13897;SDS011;7019;50.766;4.474;2023-07-09T12:24:46;10.70;;;6.80;;
13897;SDS011;7019;50.766;4.474;2023-07-09T12:27:17;9.83;;;7.00;;
13897;SDS011;7019;50.766;4.474;2023-07-09T12:29:49;9.80;;;7.90;;
13897;SDS011;7019;50.766;4.474;2023-07-09T12:32:19;8.47;;;6.50;;
13897;SDS011;7019;50.766;4.474;2023-07-09T12:34:49;8.90;;;6.60;;
13897;SDS011;7019;50.766;4.474;2023-07-09T12:37:18;13.00;;;8.47;;
13897;SDS011;7019;50.766;4.474;2023-07-09T12:39:48;13.07;;;7.40;;
13897;SDS011;7019;50.766;4.474;2023-07-09T12:42:18;11.13;;;7.30;;
13897;SDS011;7019;50.766;4.474;2023-07-09T12:44:52;13.37;;;8.40;;
13897;SDS011;7019;50.766;4.474;2023-07-09T12:47:19;9.37;;;7.10;;
13897;SDS011;7019;50.766;4.474;2023-07-09T12:49:49;12.10;;;7.13;;
13897;SDS011;7019;50.766;4.474;2023-07-09T12:52:17;11.10;;;7.10;;
13897;SDS011;7019;50.766;4.474;2023-07-09T12:54:52;9.07;;;7.60;;
13897;SDS011;7019;50.766;4.474;2023-07-09T12:57:22;9.47;;;6.00;;
13897;SDS011;7019;50.766;4.474;2023-07-09T12:59:50;8.70;;;6.73;;
13897;SDS011;7019;50.766;4.474;2023-07-09T13:02:20;9.73;;;6.63;;
13897;SDS011;7019;50.766;4.474;2023-07-09T13:04:49;8.63;;;6.30;;
13897;SDS011;7019;50.766;4.474;2023-07-09T13:07:26;9.43;;;7.37;;
13897;SDS011;7019;50.766;4.474;2023-07-09T13:09:58;9.97;;;5.97;;
13897;SDS011;7019;50.766;4.474;2023-07-09T13:12:32;9.67;;;7.13;;
13897;SDS011;7019;50.766;4.474;2023-07-09T13:15:01;8.37;;;6.50;;
13897;SDS011;7019;50.766;4.474;2023-07-09T13:17:29;9.63;;;6.87;;
13897;SDS011;7019;50.766;4.474;2023-07-09T13:19:57;14.10;;;8.03;;
13897;SDS011;7019;50.766;4.474;2023-07-09T13:22:24;8.77;;;7.20;;
13897;SDS011;7019;50.766;4.474;2023-07-09T13:24:54;13.57;;;7.03;;
13897;SDS011;7019;50.766;4.474;2023-07-09T13:27:21;12.23;;;7.40;;
13897;SDS011;7019;50.766;4.474;2023-07-09T13:29:48;13.10;;;7.47;;
13897;SDS011;7019;50.766;4.474;2023-07-09T13:32:17;9.77;;;7.23;;
13897;SDS011;7019;50.766;4.474;2023-07-09T13:34:44;11.23;;;7.10;;
13897;SDS011;7019;50.766;4.474;2023-07-09T13:37:12;9.50;;;7.40;;
13897;SDS011;7019;50.766;4.474;2023-07-09T13:39:40;11.03;;;7.30;;
13897;SDS011;7019;50.766;4.474;2023-07-09T13:42:09;10.90;;;7.60;;
13897;SDS011;7019;50.766;4.474;2023-07-09T13:44:39;10.87;;;8.27;;
13897;SDS011;7019;50.766;4.474;2023-07-09T13:47:10;9.57;;;7.70;;
13897;SDS011;7019;50.766;4.474;2023-07-09T13:49:42;8.60;;;7.00;;
13897;SDS011;7019;50.766;4.474;2023-07-09T13:52:13;11.73;;;7.07;;
13897;SDS011;7019;50.766;4.474;2023-07-09T13:54:42;8.85;;;6.30;;
13897;SDS011;7019;50.766;4.474;2023-07-09T13:57:13;11.27;;;7.15;;
13897;SDS011;7019;50.766;4.474;2023-07-09T13:59:42;9.05;;;6.35;;
13897;SDS011;7019;50.766;4.474;2023-07-09T14:02:17;9.00;;;6.90;;
13897;SDS011;7019;50.766;4.474;2023-07-09T14:04:50;10.65;;;6.60;;
13897;SDS011;7019;50.766;4.474;2023-07-09T14:07:24;9.80;;;6.95;;
13897;SDS011;7019;50.766;4.474;2023-07-09T14:09:54;8.45;;;7.47;;
13897;SDS011;7019;50.766;4.474;2023-07-09T14:12:22;8.98;;;5.70;;
13897;SDS011;7019;50.766;4.474;2023-07-09T14:14:49;8.18;;;6.53;;
13897;SDS011;7019;50.766;4.474;2023-07-09T14:17:17;7.97;;;6.60;;
13897;SDS011;7019;50.766;4.474;2023-07-09T14:19:46;7.68;;;6.88;;
13897;SDS011;7019;50.766;4.474;2023-07-09T14:22:19;7.32;;;5.90;;
13897;SDS011;7019;50.766;4.474;2023-07-09T14:24:49;8.00;;;6.00;;
13897;SDS011;7019;50.766;4.474;2023-07-09T14:27:17;9.30;;;6.90;;
13897;SDS011;7019;50.766;4.474;2023-07-09T14:29:44;8.07;;;6.50;;
13897;SDS011;7019;50.766;4.474;2023-07-09T14:32:21;8.57;;;6.05;;
13897;SDS011;7019;50.766;4.474;2023-07-09T14:34:57;11.85;;;7.00;;
13897;SDS011;7019;50.766;4.474;2023-07-09T14:37:25;6.32;;;5.40;;
13897;SDS011;7019;50.766;4.474;2023-07-09T14:39:53;8.60;;;6.05;;
13897;SDS011;7019;50.766;4.474;2023-07-09T14:42:20;7.40;;;5.78;;
13897;SDS011;7019;50.766;4.474;2023-07-09T14:44:48;7.05;;;5.70;;
13897;SDS011;7019;50.766;4.474;2023-07-09T14:47:16;8.48;;;5.50;;
13897;SDS011;7019;50.766;4.474;2023-07-09T14:49:44;10.13;;;6.60;;
13897;SDS011;7019;50.766;4.474;2023-07-09T14:52:13;9.10;;;6.47;;
13897;SDS011;7019;50.766;4.474;2023-07-09T14:54:44;9.80;;;5.93;;
13897;SDS011;7019;50.766;4.474;2023-07-09T14:57:16;7.03;;;6.03;;
13897;SDS011;7019;50.766;4.474;2023-07-09T14:59:45;8.43;;;5.63;;
13897;SDS011;7019;50.766;4.474;2023-07-09T15:05:00;7.40;;;6.00;;
13897;SDS011;7019;50.766;4.474;2023-07-09T15:07:27;7.30;;;6.10;;
13897;SDS011;7019;50.766;4.474;2023-07-09T15:09:57;6.53;;;5.10;;
13897;SDS011;7019;50.766;4.474;2023-07-09T15:12:26;10.13;;;5.95;;
13897;SDS011;7019;50.766;4.474;2023-07-09T15:14:59;9.25;;;6.50;;
13897;SDS011;7019;50.766;4.474;2023-07-09T15:17:32;11.80;;;5.63;;
13897;SDS011;7019;50.766;4.474;2023-07-09T15:19:59;10.48;;;6.90;;
13897;SDS011;7019;50.766;4.474;2023-07-09T15:22:28;10.07;;;6.20;;